Urb River Villa, Puerto Rico
Current Conditions -  °F | °C
As of 5:56 PM on Monday 22 Dec 2014 (Local Time) from TJSJ Reporting Station
Scattered Clouds Scattered Clouds  
Wind Chill: 80°   Ceiling: Unl
Heat Index: 84°   Visibility: 10mi
Dew Point: 72°   Wind: 10mph
Humidity: 76%   Direction: 70°ENE
Pressure: 29.99"   Gusts: NA
Location:  18.3747°N, 65.9126°W
Report Text: TJSJ 222156Z 07009KT 10SM FEW028 SCT070 27/22 A2999 RMK AO2 SLP154 T02670222
Loading
Personal Weather Stations






























Interactive Weather Map New forecast layout! Learn more

10-Day Weather Forecast

Advertisements
Track Severe Weather on mobile